createdAt,value
2017-10-12T00:02:24.181Z,88.28
2017-10-12T00:04:51.777Z,88.35
2017-10-12T00:07:20.808Z,88.21
2017-10-12T00:09:48.388Z,87.97
2017-10-12T00:12:15.936Z,87.69
2017-10-12T00:14:43.497Z,87.72
2017-10-12T00:17:11.070Z,88.20
2017-10-12T00:19:38.639Z,88.28
2017-10-12T00:22:06.577Z,88.53
2017-10-12T00:24:34.149Z,88.28
2017-10-12T00:27:01.745Z,88.25
2017-10-12T00:29:29.341Z,88.36
2017-10-12T00:31:56.935Z,88.25
2017-10-12T00:34:24.540Z,88.46
2017-10-12T00:36:52.097Z,88.52
2017-10-12T00:39:20.005Z,88.66
2017-10-12T00:41:47.971Z,88.52
2017-10-12T00:44:15.542Z,88.07
2017-10-12T00:46:43.157Z,88.30
2017-10-12T00:49:10.738Z,88.04
2017-10-12T00:51:38.336Z,87.98
2017-10-12T00:54:06.257Z,88.00
2017-10-12T00:56:33.821Z,88.11
2017-10-12T00:59:01.414Z,88.21
2017-10-12T01:01:28.989Z,88.21
2017-10-12T01:03:57.570Z,88.47
2017-10-12T01:06:25.137Z,88.52
2017-10-12T01:08:52.697Z,88.53
2017-10-12T01:11:20.661Z,88.87
2017-10-12T01:13:48.216Z,88.48
2017-10-12T01:16:16.171Z,88.44
2017-10-12T01:18:44.152Z,88.42
2017-10-12T01:21:12.108Z,88.39
2017-10-12T01:23:39.693Z,88.25
2017-10-12T01:26:07.416Z,88.38
2017-10-12T01:28:35.006Z,88.51
2017-10-12T01:31:02.571Z,88.04
2017-10-12T01:33:31.694Z,87.91
2017-10-12T01:35:59.265Z,88.00
2017-10-12T01:38:26.819Z,87.94
2017-10-12T01:40:54.384Z,88.25
2017-10-12T01:43:21.951Z,88.36
2017-10-12T01:45:49.527Z,88.41
2017-10-12T01:48:29.440Z,88.26
2017-10-12T01:50:57.776Z,88.14
2017-10-12T01:53:25.312Z,88.12
2017-10-12T01:55:52.872Z,88.04
2017-10-12T01:58:20.454Z,87.85
2017-10-12T02:00:48.013Z,88.06
2017-10-12T02:03:16.009Z,88.06
2017-10-12T02:05:44.150Z,87.91
2017-10-12T02:08:11.835Z,87.73
2017-10-12T02:10:39.506Z,87.90
2017-10-12T02:13:07.060Z,88.01
2017-10-12T02:15:34.673Z,87.72
2017-10-12T02:18:02.218Z,87.65
2017-10-12T02:20:29.800Z,87.64
2017-10-12T02:22:57.357Z,87.72
2017-10-12T02:25:24.913Z,87.78
2017-10-12T02:27:52.667Z,87.83
2017-10-12T02:30:20.231Z,88.02
2017-10-12T02:32:48.153Z,88.01
2017-10-12T02:35:15.714Z,88.33
2017-10-12T02:37:43.333Z,88.51
2017-10-12T02:40:10.905Z,88.33
2017-10-12T02:42:38.455Z,88.60
2017-10-12T02:45:06.171Z,88.57
2017-10-12T02:47:33.751Z,88.51
2017-10-12T02:50:01.691Z,88.81
2017-10-12T02:52:29.242Z,88.94
2017-10-12T02:54:56.819Z,88.93
2017-10-12T02:57:24.380Z,88.95
2017-10-12T02:59:51.960Z,88.67
2017-10-12T03:02:19.551Z,89.01
2017-10-12T03:04:47.082Z,89.16
2017-10-12T03:07:14.668Z,89.07
2017-10-12T03:09:42.251Z,89.10
2017-10-12T03:12:09.827Z,88.76
2017-10-12T03:14:37.431Z,88.82
2017-10-12T03:17:05.004Z,88.79
2017-10-12T03:19:32.552Z,88.95
2017-10-12T03:22:00.099Z,88.78
2017-10-12T03:24:27.851Z,88.62
2017-10-12T03:26:55.408Z,88.41
2017-10-12T03:29:23.355Z,88.40
2017-10-12T03:31:50.919Z,88.49
2017-10-12T03:34:18.526Z,88.54
2017-10-12T03:36:46.135Z,88.46
2017-10-12T03:39:13.726Z,88.55
2017-10-12T03:41:41.300Z,88.76
2017-10-12T03:44:09.281Z,88.84
2017-10-12T03:46:37.191Z,88.96
2017-10-12T03:49:04.763Z,88.91
2017-10-12T03:51:32.317Z,89.26
2017-10-12T03:53:59.925Z,89.49
2017-10-12T03:56:27.809Z,89.57
2017-10-12T03:58:55.395Z,89.44
2017-10-12T04:01:23.332Z,89.31
2017-10-12T04:03:51.343Z,89.85
2017-10-12T04:06:18.935Z,89.96
2017-10-12T04:08:46.504Z,89.80
2017-10-12T04:11:14.727Z,89.70
2017-10-12T04:13:42.284Z,89.35
2017-10-12T04:16:09.863Z,89.39
2017-10-12T04:18:37.477Z,89.33
2017-10-12T04:21:05.393Z,89.28
2017-10-12T04:23:33.441Z,89.46
2017-10-12T04:26:01.329Z,89.29
2017-10-12T04:28:28.939Z,89.21
2017-10-12T04:30:56.511Z,89.14
2017-10-12T04:33:24.978Z,89.35
2017-10-12T04:35:52.573Z,89.28
2017-10-12T04:38:20.530Z,88.75
2017-10-12T04:40:48.131Z,89.09
2017-10-12T04:43:15.701Z,89.36
2017-10-12T04:45:43.267Z,89.53
2017-10-12T04:48:10.843Z,89.60
2017-10-12T04:50:38.402Z,89.95
2017-10-12T04:53:05.977Z,90.02
2017-10-12T04:55:33.537Z,90.14
2017-10-12T04:58:01.241Z,90.03
2017-10-12T05:00:29.147Z,90.18
2017-10-12T05:02:57.235Z,90.24
2017-10-12T05:05:24.823Z,90.29
2017-10-12T05:07:52.421Z,90.39
2017-10-12T05:10:20.376Z,90.36
2017-10-12T05:12:48.307Z,90.12
2017-10-12T05:15:16.326Z,90.32
2017-10-12T05:17:44.088Z,90.38
2017-10-12T05:20:11.945Z,89.86
2017-10-12T05:22:39.544Z,90.03
2017-10-12T05:25:07.105Z,90.41
2017-10-12T05:27:34.703Z,90.37
2017-10-12T05:30:02.348Z,90.56
2017-10-12T05:32:30.255Z,90.67
2017-10-12T05:34:57.812Z,90.75
2017-10-12T05:37:25.359Z,90.69
2017-10-12T05:39:52.958Z,90.84
2017-10-12T05:42:21.116Z,90.58
2017-10-12T05:44:48.930Z,90.41
2017-10-12T05:47:16.503Z,90.81
2017-10-12T05:49:44.093Z,90.71
2017-10-12T05:52:11.676Z,90.74
2017-10-12T05:54:39.327Z,90.68
2017-10-12T05:57:06.907Z,90.43
2017-10-12T05:59:34.623Z,90.84
2017-10-12T06:02:02.224Z,90.60
2017-10-12T06:04:30.183Z,90.68
2017-10-12T06:06:59.029Z,90.68
2017-10-12T06:09:26.762Z,90.29
2017-10-12T06:11:54.328Z,89.91
2017-10-12T06:14:23.350Z,90.32
2017-10-12T06:16:50.904Z,90.35
2017-10-12T06:19:18.521Z,90.73
2017-10-12T06:21:46.127Z,91.07
2017-10-12T06:24:13.688Z,91.45
2017-10-12T06:26:41.906Z,91.71
2017-10-12T06:29:09.476Z,91.97
2017-10-12T06:31:37.755Z,91.73
2017-10-12T06:34:05.350Z,91.76
2017-10-12T06:36:33.273Z,91.59
2017-10-12T06:39:01.062Z,91.52
2017-10-12T06:41:29.191Z,91.61
2017-10-12T06:43:57.330Z,91.90
2017-10-12T06:46:24.913Z,91.94
2017-10-12T06:48:52.543Z,92.14
2017-10-12T06:51:20.276Z,92.16
2017-10-12T06:53:47.870Z,92.11
2017-10-12T06:56:15.460Z,92.21
2017-10-12T06:58:43.028Z,92.24
2017-10-12T07:01:10.616Z,92.15
2017-10-12T07:03:38.233Z,92.28
2017-10-12T07:06:05.826Z,92.55
2017-10-12T07:08:33.398Z,92.83
2017-10-12T07:11:00.999Z,93.22
2017-10-12T07:13:28.541Z,93.25
2017-10-12T07:15:56.152Z,93.30
2017-10-12T07:18:23.723Z,93.23
2017-10-12T07:20:51.656Z,93.41
2017-10-12T07:23:19.256Z,93.33
2017-10-12T07:25:46.843Z,93.01
2017-10-12T07:28:14.440Z,92.79
2017-10-12T07:30:42.434Z,92.11
2017-10-12T07:33:10.040Z,91.32
2017-10-12T07:35:37.663Z,90.78
2017-10-12T07:38:05.239Z,90.06
2017-10-12T07:40:32.829Z,89.78
2017-10-12T07:43:00.723Z,90.12
2017-10-12T07:45:28.852Z,89.91
2017-10-12T07:47:59.438Z,90.13
2017-10-12T07:50:27.041Z,89.93
2017-10-12T07:52:54.615Z,89.73
2017-10-12T07:55:22.193Z,88.82
2017-10-12T07:57:51.389Z,89.15
2017-10-12T08:00:18.968Z,88.33
2017-10-12T08:02:47.970Z,88.34
2017-10-12T08:05:15.674Z,88.19
2017-10-12T08:07:43.256Z,87.91
2017-10-12T08:10:10.850Z,87.82
2017-10-12T08:12:38.736Z,87.77
2017-10-12T08:15:06.353Z,86.57
2017-10-12T08:17:34.608Z,85.55
2017-10-12T08:20:02.438Z,85.07
2017-10-12T08:22:30.027Z,83.98
2017-10-12T08:24:57.586Z,83.88
2017-10-12T08:27:25.234Z,82.46
2017-10-12T08:29:52.800Z,82.28
2017-10-12T08:32:20.418Z,81.54
2017-10-12T08:34:48.050Z,81.52
2017-10-12T08:37:15.598Z,80.42
2017-10-12T08:39:43.511Z,79.29
2017-10-12T08:42:11.104Z,78.62
2017-10-12T08:44:40.446Z,78.43
2017-10-12T08:47:08.095Z,78.23
2017-10-12T08:49:35.682Z,78.13
2017-10-12T08:52:03.283Z,78.75
2017-10-12T08:54:30.894Z,78.22
2017-10-12T08:56:58.483Z,77.97
2017-10-12T08:59:26.040Z,77.01
2017-10-12T09:01:53.605Z,76.80
2017-10-12T09:04:21.172Z,77.67
2017-10-12T09:06:48.917Z,77.39
2017-10-12T09:09:16.784Z,78.53
2017-10-12T09:11:44.352Z,79.16
2017-10-12T09:14:11.938Z,79.25
2017-10-12T09:16:39.519Z,80.02
2017-10-12T09:19:07.067Z,79.91
2017-10-12T09:21:36.428Z,78.31
2017-10-12T09:24:04.071Z,78.71
2017-10-12T09:26:31.654Z,78.79
2017-10-12T09:28:59.329Z,78.50
2017-10-12T09:31:26.920Z,78.09
2017-10-12T09:33:54.514Z,76.90
2017-10-12T09:36:22.060Z,77.09
2017-10-12T09:38:50.169Z,76.32
2017-10-12T09:41:17.722Z,76.63
2017-10-12T09:43:45.817Z,76.21
2017-10-12T09:46:13.796Z,76.35
2017-10-12T09:48:41.824Z,75.92
2017-10-12T09:51:09.406Z,75.83
2017-10-12T09:53:36.967Z,75.50
2017-10-12T09:56:04.546Z,75.84
2017-10-12T09:58:32.103Z,74.14
2017-10-12T10:00:59.746Z,72.33
2017-10-12T10:03:27.352Z,70.95
2017-10-12T10:05:55.356Z,73.00
2017-10-12T10:08:22.950Z,70.46
2017-10-12T10:10:50.517Z,70.47
2017-10-12T10:13:18.305Z,69.53
2017-10-12T10:15:45.876Z,69.76
2017-10-12T10:18:13.822Z,69.72
2017-10-12T10:20:41.394Z,69.73
2017-10-12T10:23:09.342Z,69.80
2017-10-12T10:25:36.941Z,71.54
2017-10-12T10:28:04.895Z,71.18
2017-10-12T10:30:32.842Z,72.11
2017-10-12T10:33:00.468Z,72.50
2017-10-12T10:35:28.047Z,72.57
2017-10-12T10:37:55.624Z,73.33
2017-10-12T10:40:23.204Z,71.21
2017-10-12T10:42:50.835Z,72.07
2017-10-12T10:45:18.404Z,72.74
2017-10-12T10:47:45.959Z,72.86
2017-10-12T10:50:14.912Z,73.22
2017-10-12T10:52:42.481Z,72.76
2017-10-12T10:55:10.072Z,72.35
2017-10-12T10:57:37.643Z,72.89
2017-10-12T11:00:05.242Z,74.16
2017-10-12T11:02:32.833Z,74.02
2017-10-12T11:05:00.393Z,72.90
2017-10-12T11:07:27.991Z,72.75
2017-10-12T11:09:55.633Z,73.50
2017-10-12T11:12:23.227Z,74.12
2017-10-12T11:14:51.281Z,74.06
2017-10-12T11:17:18.886Z,73.60
2017-10-12T11:19:46.465Z,73.22
2017-10-12T11:22:14.575Z,74.02
2017-10-12T11:24:42.165Z,73.44
2017-10-12T11:27:09.714Z,74.18
2017-10-12T11:29:37.681Z,74.44
2017-10-12T11:32:05.246Z,74.40
2017-10-12T11:34:32.788Z,74.37
2017-10-12T11:37:00.374Z,74.89
2017-10-12T11:39:27.971Z,74.34
2017-10-12T11:41:55.587Z,73.97
2017-10-12T11:44:23.150Z,74.51
2017-10-12T11:46:52.175Z,74.25
2017-10-12T11:49:19.765Z,75.16
2017-10-12T11:51:47.366Z,74.20
2017-10-12T11:54:14.967Z,73.89
2017-10-12T11:56:42.541Z,72.53
2017-10-12T11:59:10.113Z,72.55
2017-10-12T12:01:37.717Z,72.80
2017-10-12T12:04:05.597Z,72.23
2017-10-12T12:06:33.217Z,73.11
2017-10-12T12:09:01.216Z,72.48
2017-10-12T12:11:28.912Z,72.37
2017-10-12T12:16:23.346Z,72.32
2017-10-12T12:18:50.944Z,71.22
2017-10-12T12:21:18.510Z,71.49
2017-10-12T12:23:46.121Z,69.58
2017-10-12T12:26:13.692Z,69.64
2017-10-12T12:28:41.265Z,69.24
2017-10-12T12:31:08.898Z,69.82
2017-10-12T12:33:36.496Z,68.21
2017-10-12T12:36:04.114Z,65.87
2017-10-12T12:38:31.711Z,67.56
2017-10-12T12:40:59.286Z,68.14
2017-10-12T12:43:26.886Z,68.10
2017-10-12T12:45:54.462Z,69.17
2017-10-12T12:48:22.055Z,67.91
2017-10-12T12:50:49.641Z,67.55
2017-10-12T12:53:17.596Z,67.91
2017-10-12T12:55:46.638Z,68.17
2017-10-12T12:58:14.240Z,69.15
2017-10-12T13:00:41.841Z,69.18
2017-10-12T13:03:09.432Z,69.06
2017-10-12T13:05:37.315Z,68.70
2017-10-12T13:08:04.883Z,69.14
2017-10-12T13:10:32.484Z,68.20
2017-10-12T13:13:00.633Z,68.66
2017-10-12T13:15:28.219Z,68.89
2017-10-12T13:17:55.826Z,69.00
2017-10-12T13:20:24.561Z,68.54
2017-10-12T13:22:52.560Z,68.98
2017-10-12T13:25:20.203Z,69.84
2017-10-12T13:27:47.914Z,69.66
2017-10-12T13:30:15.534Z,69.62
2017-10-12T13:32:43.116Z,70.03
2017-10-12T13:35:11.068Z,70.38
2017-10-12T13:37:38.683Z,70.49
2017-10-12T13:40:06.269Z,69.63
2017-10-12T13:42:33.880Z,69.77
2017-10-12T13:45:01.512Z,70.21
2017-10-12T13:47:29.131Z,70.52
2017-10-12T13:49:56.781Z,71.00
2017-10-12T13:52:24.454Z,71.64
2017-10-12T13:54:52.281Z,71.38
2017-10-12T13:57:20.504Z,71.77
2017-10-12T13:59:48.486Z,71.81
2017-10-12T14:02:16.399Z,71.99
2017-10-12T14:04:44.308Z,72.06
2017-10-12T14:07:11.905Z,72.27
2017-10-12T14:09:39.495Z,72.29
2017-10-12T14:12:07.062Z,72.20
2017-10-12T14:14:34.657Z,72.54
2017-10-12T14:17:02.216Z,72.45
2017-10-12T14:19:29.786Z,72.78
2017-10-12T14:21:57.577Z,72.71
2017-10-12T14:24:25.150Z,73.26
2017-10-12T14:26:52.737Z,72.88
2017-10-12T14:29:20.308Z,73.33
2017-10-12T14:31:48.192Z,73.60
2017-10-12T14:34:15.849Z,73.48
2017-10-12T14:36:43.417Z,73.52
2017-10-12T14:39:12.427Z,72.81
2017-10-12T14:41:40.005Z,72.89
2017-10-12T14:44:07.948Z,72.78
2017-10-12T14:46:35.508Z,73.09
2017-10-12T14:49:03.255Z,72.61
2017-10-12T14:51:30.821Z,72.64
2017-10-12T14:53:58.801Z,72.71
2017-10-12T14:56:26.381Z,73.03
2017-10-12T14:58:53.941Z,72.67
2017-10-12T15:01:21.937Z,72.13
2017-10-12T15:03:49.522Z,73.13
2017-10-12T15:06:17.112Z,71.76
2017-10-12T15:08:44.697Z,70.72
2017-10-12T15:11:12.296Z,69.42
2017-10-12T15:13:39.897Z,69.22
2017-10-12T15:16:07.460Z,67.57
2017-10-12T15:18:35.459Z,68.37
2017-10-12T15:21:03.034Z,68.77
2017-10-12T15:23:31.058Z,68.80
2017-10-12T15:25:59.333Z,69.32
2017-10-12T15:28:26.939Z,69.36
2017-10-12T15:30:54.928Z,69.61
2017-10-12T15:33:22.498Z,69.90
2017-10-12T15:35:50.079Z,70.82
2017-10-12T15:38:17.645Z,71.16
2017-10-12T15:40:45.211Z,71.49
2017-10-12T15:43:12.898Z,70.59
2017-10-12T15:45:40.875Z,70.63
2017-10-12T15:48:08.472Z,70.06
2017-10-12T15:50:36.106Z,70.46
2017-10-12T15:53:03.686Z,70.92
2017-10-12T15:55:31.637Z,71.01
2017-10-12T15:57:59.239Z,71.60
2017-10-12T16:00:26.821Z,72.08
2017-10-12T16:02:54.451Z,72.37
2017-10-12T16:05:22.032Z,72.81
2017-10-12T16:07:49.595Z,73.31
2017-10-12T16:10:17.226Z,73.59
2017-10-12T16:12:44.814Z,74.08
2017-10-12T16:15:12.453Z,74.34
2017-10-12T16:17:40.022Z,74.87
2017-10-12T16:20:07.643Z,75.16
2017-10-12T16:23:05.143Z,75.60
2017-10-12T16:25:02.868Z,76.06
2017-10-12T16:27:30.685Z,76.46
2017-10-12T16:29:58.266Z,76.63
2017-10-12T16:32:26.549Z,76.87
2017-10-12T16:34:54.158Z,77.03
2017-10-12T16:37:21.708Z,76.91
2017-10-12T16:39:49.334Z,77.06
2017-10-12T16:42:16.938Z,77.20
2017-10-12T16:44:44.546Z,77.49
2017-10-12T16:47:12.143Z,77.82
2017-10-12T16:49:39.711Z,78.06
2017-10-12T16:52:07.314Z,78.24
2017-10-12T16:54:34.888Z,78.42
2017-10-12T16:57:02.845Z,78.46
2017-10-12T16:59:30.443Z,78.57
2017-10-12T17:01:58.000Z,78.92
2017-10-12T17:04:25.585Z,78.97
2017-10-12T17:06:53.918Z,79.20
2017-10-12T17:09:21.663Z,79.01
2017-10-12T17:11:49.261Z,79.11
2017-10-12T17:14:17.253Z,79.30
2017-10-12T17:16:44.959Z,79.36
2017-10-12T17:19:12.606Z,79.44
2017-10-12T17:21:40.278Z,79.44
2017-10-12T17:24:08.048Z,79.92
2017-10-12T17:26:37.404Z,80.28
2017-10-12T17:29:05.194Z,80.47
2017-10-12T17:31:33.194Z,80.46
2017-10-12T17:34:01.062Z,80.78
2017-10-12T17:36:28.928Z,81.06
2017-10-12T17:38:56.842Z,81.33
2017-10-12T17:41:26.003Z,81.67
2017-10-12T17:46:22.592Z,82.05
2017-10-12T17:48:50.464Z,82.33
2017-10-12T17:51:19.093Z,82.55
2017-10-12T17:53:47.064Z,82.76
2017-10-12T17:56:16.301Z,82.78
2017-10-12T17:58:44.598Z,82.84
2017-10-12T18:01:12.863Z,82.97
2017-10-12T18:03:42.570Z,83.01
2017-10-12T18:06:10.805Z,82.56
2017-10-12T18:08:38.632Z,82.88
2017-10-12T18:11:06.350Z,83.02
2017-10-12T18:13:34.410Z,83.35
2017-10-12T18:16:02.120Z,83.69
2017-10-12T18:18:30.290Z,83.97
2017-10-12T18:20:58.110Z,84.09
2017-10-12T18:23:26.241Z,84.26
2017-10-12T18:25:54.764Z,84.41
2017-10-12T18:28:23.422Z,84.35
2017-10-12T18:30:51.222Z,84.69
2017-10-12T18:33:20.302Z,84.67
2017-10-12T18:35:49.497Z,84.70
2017-10-12T18:38:18.119Z,84.81
2017-10-12T18:40:47.506Z,84.83
2017-10-12T18:43:15.392Z,84.86
2017-10-12T18:45:43.439Z,85.00
2017-10-12T18:48:13.043Z,85.21
2017-10-12T18:50:42.508Z,85.21
2017-10-12T18:53:13.389Z,85.25
2017-10-12T18:55:41.467Z,85.28
2017-10-12T18:58:09.638Z,85.28
2017-10-12T19:00:37.516Z,85.44
2017-10-12T19:03:05.485Z,85.50
2017-10-12T19:05:34.077Z,85.65
2017-10-12T19:21:08.269Z,86.13
2017-10-12T19:23:36.238Z,86.55
2017-10-12T19:26:04.309Z,86.96
2017-10-12T19:31:00.341Z,87.24
2017-10-12T19:33:28.729Z,87.17
2017-10-12T19:35:57.658Z,87.49
2017-10-12T19:38:26.924Z,87.41
2017-10-12T19:43:24.456Z,87.38
2017-10-12T19:45:52.358Z,87.46
2017-10-12T19:50:47.990Z,87.90
2017-10-12T19:53:15.750Z,87.89
2017-10-12T19:55:43.917Z,88.00
2017-10-12T19:58:11.807Z,87.81
2017-10-12T20:00:39.977Z,87.83
2017-10-12T20:03:08.048Z,88.05
2017-10-12T20:05:35.896Z,88.11
2017-10-12T20:08:04.074Z,88.03
2017-10-12T20:10:32.244Z,87.91
2017-10-12T20:12:59.981Z,87.69
2017-10-12T20:15:27.912Z,87.50
2017-10-12T20:17:55.748Z,88.10
2017-10-12T20:20:23.485Z,88.20
2017-10-12T20:22:52.217Z,88.53
2017-10-12T20:25:19.952Z,88.58
2017-10-12T20:27:50.020Z,88.68
2017-10-12T20:30:17.937Z,88.52
2017-10-12T20:32:45.640Z,89.31
2017-10-12T20:35:14.908Z,89.32
2017-10-12T20:37:42.990Z,89.39
2017-10-12T20:40:10.715Z,89.37
2017-10-12T20:42:38.348Z,89.25
2017-10-12T20:45:06.005Z,89.40
2017-10-12T20:47:33.630Z,89.33
2017-10-12T20:50:02.294Z,89.30
2017-10-12T20:52:29.983Z,89.23
2017-10-12T20:55:12.677Z,89.45
2017-10-12T20:57:25.337Z,89.51
2017-10-12T20:59:52.966Z,89.40
2017-10-12T21:02:50.210Z,89.33
2017-10-12T21:04:49.173Z,89.26
2017-10-12T21:07:16.766Z,89.16
2017-10-12T21:09:46.099Z,89.07
2017-10-12T21:12:13.732Z,89.24
2017-10-12T21:14:41.323Z,89.51
2017-10-12T21:17:08.915Z,89.60
2017-10-12T21:19:36.529Z,89.44
2017-10-12T21:22:04.113Z,89.39
2017-10-12T21:24:32.111Z,89.49
2017-10-12T21:26:59.668Z,89.39
2017-10-12T21:29:27.263Z,89.62
2017-10-12T21:31:56.213Z,89.59
2017-10-12T21:34:25.355Z,89.52
2017-10-12T21:36:52.954Z,89.95
2017-10-12T21:39:23.318Z,90.09
2017-10-12T21:44:24.785Z,90.26
2017-10-12T21:46:52.379Z,90.19
2017-10-12T21:49:19.995Z,90.26
2017-10-12T21:51:47.585Z,90.48
2017-10-12T21:54:15.163Z,90.32
2017-10-12T21:56:42.743Z,90.01
2017-10-12T21:59:10.339Z,90.12
2017-10-12T22:01:37.899Z,89.77
2017-10-12T22:04:05.531Z,89.46
2017-10-12T22:06:33.135Z,89.27
2017-10-12T22:09:00.902Z,89.58
2017-10-12T22:11:28.482Z,90.04
2017-10-12T22:13:56.056Z,90.34
2017-10-12T22:16:23.661Z,90.53
2017-10-12T22:18:51.256Z,90.66
2017-10-12T22:21:18.874Z,91.12
2017-10-12T22:23:46.442Z,91.28
2017-10-12T22:26:14.356Z,91.04
2017-10-12T22:28:43.297Z,90.86
2017-10-12T22:31:10.848Z,90.88
2017-10-12T22:33:38.544Z,90.88
2017-10-12T22:36:06.124Z,90.99
2017-10-12T22:38:33.723Z,90.82
2017-10-12T22:41:01.287Z,90.80
2017-10-12T22:43:30.256Z,90.83
2017-10-12T22:45:57.854Z,91.33
2017-10-12T22:48:25.407Z,91.12
2017-10-12T22:50:52.980Z,91.24
2017-10-12T22:53:20.541Z,90.83
2017-10-12T22:55:49.152Z,90.69
2017-10-12T22:58:18.127Z,91.02
2017-10-12T23:00:45.751Z,90.74
2017-10-12T23:03:13.350Z,90.54
2017-10-12T23:05:41.421Z,90.32
2017-10-12T23:08:09.461Z,90.41
2017-10-12T23:10:37.033Z,90.70
2017-10-12T23:13:04.626Z,90.59
2017-10-12T23:15:32.223Z,90.68
2017-10-12T23:17:59.792Z,90.64
2017-10-12T23:20:27.369Z,90.47
2017-10-12T23:22:54.948Z,90.28
2017-10-12T23:25:22.593Z,90.20
2017-10-12T23:27:50.163Z,90.52
2017-10-12T23:30:18.078Z,90.99
2017-10-12T23:32:45.638Z,91.03
2017-10-12T23:35:13.217Z,91.14
2017-10-12T23:37:40.809Z,90.96
2017-10-12T23:40:08.363Z,90.84
2017-10-12T23:42:36.039Z,90.71
2017-10-12T23:45:03.626Z,91.06
2017-10-12T23:47:31.193Z,91.08
2017-10-12T23:49:58.794Z,91.77
2017-10-12T23:52:26.386Z,92.15
2017-10-12T23:54:53.985Z,92.40
2017-10-12T23:57:21.603Z,92.01
2017-10-12T23:59:49.662Z,91.96
